Davison Army Air Field
KDAA : now visible

Airfield :











YOU CAN JOIN US ON...

 
LOGIN :

Register | Disclaimer

   EN    FR    IT 

 









Legend :    VFR   Marginal VFR   IFR   Intensive IFR   Very Intensive IFR
Visi :
Ceiling :
>= 8 km
>= 3000ft
5 to 8 km
1000 to 3000 ft
1500m to 5 km
500 to 1000 ft
800 to 1500m
200 to 500 ft
< 800m
< 200 ft
Symbols :   Thunderstorms  Fog  Heavy snow  Heavy precipitations  Wind > 20 kt






- Airport Elevation : 73 ft


KDAA - Davison Army Air Field

CURRENT METAR :
  • 281726Z AUTO 15005KT 9SM BKN012 OVC018 25/23 A3006 RMK AO2 DZB05E16RAB16E26 SLP182 TSNO $

EXPIRED METARs :
  • 281705Z AUTO 17004KT 10SM -DZ OVC013 25/23 A3006 RMK AO2 DZB05 OVC V BKN SLP182 TSNO $
  • 281641Z AUTO 15005KT 10SM OVC015 25/23 A3006 RMK AO2 SLP182 TSNO $
  • 281556Z AUTO 14008KT 10SM BKN010 BKN018 25/23 A3006 RMK AO2 RAB1457E07DZB07E08 SLP182 P0001 T02470231 TSNO $
  • 281548Z AUTO 14009KT 10SM BKN010 BKN016 24/23 A3006 RMK AO2 RAB1457E07DZB07E08 SLP182 TSNO $
  • 281528Z AUTO 14009KT 10SM BKN009 OVC016 24/23 A3006 RMK AO2 RAB1457E07DZB07E08 CIG 009V011 SLP182 TSNO $
  • 281508Z AUTO 14008KT 10SM BKN009 OVC013 23/22 A3006 RMK AO2 RAB1457E07DZB07E08 SLP182 TSNO $
  • 281457Z AUTO 14009KT 3SM -RA BR BKN009 OVC013 24/22 A3006 RMK AO2 RAB57 BKN V OVC SLP182 TSNO $

TAF TAF KDAA
Valid from the 28 at 17:00 until the 29 at 23:00 UTC


281700Z 2817/2923 17009KT 9000 -SHRA BKN010 510103 QNH2999INS
TEMPO 2817/2821 17025G35KT 8000 -TSRA OVC015CB
BECMG 2822/2823 17009KT 9000 BR OVC010 QNH2999INS
BECMG 2906/2907 18009KT 8000 BR OVC005 QNH3001INS
BECMG 2915/2916 20012G18KT 8000 -SHRA BKN010 510103 QNH2992INS
TEMPO 2916/2920 20025G35KT -TSRA OVC010CB
BECMG 2919/2920 21012G18KT 9000 -SHRA BKN025 510103 QNH2989INS
TEMPO 2920/2923 20025G30KT -TSRA OVC010CB TX29/2917Z TN23/2910Z
KZDC FIR / North America



MET'MAP, your aeronautical weather chart ! - Copyright ORBIFLY December 2007 - Disclaimer

ORBIFLY MET'MAP TEAM :

Programming & Development : Alexandra Zaïnal
Concept & original design : Baudouin d'Aumeries
Assistance for programming : Marc-Olivier Méhu
Technical & hardware support : Manuel Goepfert

Contact : metmap@orbifly.com




SOURCES & CREDITS :

   NOAA       Earth
Advisory